Time,TemperatureF,DewpointF,PressureIn,WindDirection,WindDirectionDegrees,WindSpeedMPH,WindSpeedGustMPH,Humidity,HourlyPrecipIn,Conditions,Clouds,dailyrainin,SoftwareType,DateUTC
2013-02-19 07:23:00,33.2,31.7,29.73,WSW,251,5.0,5.0,94,0.00,,,0.09,Wunderground v.1.15,2013-02-19 12:23:00,
2013-02-19 07:24:00,33.2,31.7,29.73,SW,225,5.0,7.0,94,0.00,,,0.09,Wunderground v.1.15,2013-02-19 12:24:00,
2013-02-19 07:25:00,33.2,31.7,29.73,WNW,287,5.0,11.0,94,0.00,,,0.09,Wunderground v.1.15,2013-02-19 12:25:00,
2013-02-19 07:31:00,33.2,31.7,29.73,WNW,293,7.0,11.0,94,0.00,,,0.09,Wunderground v.1.15,2013-02-19 12:31:00,
2013-02-19 07:33:00,33.3,31.8,29.74,South,183,6.0,6.0,94,0.00,,,0.09,Wunderground v.1.15,2013-02-19 12:33:00,
2013-02-19 07:34:00,33.3,31.8,29.74,West,265,6.0,7.0,94,0.00,,,0.09,Wunderground v.1.15,2013-02-19 12:34:00,
2013-02-19 07:38:00,33.2,31.7,29.74,WSW,249,6.0,7.0,94,0.00,,,0.09,Wunderground v.1.15,2013-02-19 12:38:00,
2013-02-19 07:41:00,33.2,31.7,29.74,WNW,285,6.0,7.0,94,0.00,,,0.09,Wunderground v.1.15,2013-02-19 12:41:00,
2013-02-19 07:42:00,33.2,31.7,29.74,WSW,237,6.0,7.0,94,0.00,,,0.09,Wunderground v.1.15,2013-02-19 12:42:00,
2013-02-19 07:43:00,33.2,31.7,29.74,WSW,245,6.0,8.0,94,0.00,,,0.09,Wunderground v.1.15,2013-02-19 12:43:00,
2013-02-19 07:48:00,32.8,31.0,29.74,SW,236,7.0,12.0,93,0.00,,,0.09,Wunderground v.1.15,2013-02-19 12:48:00,
2013-02-19 07:49:00,32.7,30.9,29.74,SW,225,8.0,12.0,93,0.00,,,0.09,Wunderground v.1.15,2013-02-19 12:49:00,
2013-02-19 07:50:00,32.7,30.9,29.74,SSW,213,8.0,12.0,93,0.00,,,0.09,Wunderground v.1.15,2013-02-19 12:50:00,
2013-02-19 07:52:00,32.5,30.7,29.74,SW,225,8.0,12.0,93,0.00,,,0.09,Wunderground v.1.15,2013-02-19 12:52:00,
2013-02-19 07:54:00,32.4,30.6,29.75,SSE,163,8.0,11.0,93,0.00,,,0.09,Wunderground v.1.15,2013-02-19 12:54:00,
2013-02-19 07:55:00,32.3,30.5,29.75,South,169,8.0,11.0,93,0.00,,,0.09,Wunderground v.1.15,2013-02-19 12:55:00,
2013-02-19 07:57:00,32.3,30.5,29.75,SW,222,8.0,12.0,93,0.00,,,0.09,Wunderground v.1.15,2013-02-19 12:57:00,
2013-02-19 08:01:00,32.2,30.1,29.75,West,267,8.0,9.0,92,0.00,,,0.09,Wunderground v.1.15,2013-02-19 13:01:00,
2013-02-19 08:02:00,32.2,30.1,29.75,SW,220,8.0,9.0,92,0.00,,,0.09,Wunderground v.1.15,2013-02-19 13:02:00,
2013-02-19 08:05:00,32.3,30.2,29.75,SW,229,8.0,11.0,92,0.00,,,0.09,Wunderground v.1.15,2013-02-19 13:05:00,
2013-02-19 08:07:00,32.3,30.0,29.75,WSW,238,7.0,11.0,91,0.00,,,0.09,Wunderground v.1.15,2013-02-19 13:07:00,
2013-02-19 08:08:00,32.3,30.0,29.75,WSW,257,7.0,11.0,91,0.00,,,0.10,Wunderground v.1.15,2013-02-19 13:08:00,
2013-02-19 08:10:00,32.3,30.0,29.75,South,169,7.0,7.0,91,0.00,,,0.10,Wunderground v.1.15,2013-02-19 13:10:00,
2013-02-19 08:11:00,32.3,30.0,29.76,West,261,7.0,11.0,91,0.00,,,0.10,Wunderground v.1.15,2013-02-19 13:11:00,
2013-02-19 08:14:00,32.3,29.7,29.76,SSW,195,7.0,12.0,90,0.00,,,0.10,Wunderground v.1.15,2013-02-19 13:14:00,
2013-02-19 08:15:00,32.4,29.8,29.76,SW,222,8.0,12.0,90,0.00,,,0.10,Wunderground v.1.15,2013-02-19 13:15:00,
2013-02-19 08:16:00,32.3,29.7,29.76,WSW,237,7.0,12.0,90,0.00,,,0.10,Wunderground v.1.15,2013-02-19 13:16:00,
2013-02-19 08:19:00,32.4,29.5,29.76,West,265,7.0,12.0,89,0.00,,,0.10,Wunderground v.1.15,2013-02-19 13:19:00,
2013-02-19 08:20:00,32.4,29.5,29.76,WNW,296,7.0,10.0,89,0.00,,,0.10,Wunderground v.1.15,2013-02-19 13:20:00,
2013-02-19 08:22:00,32.3,29.4,29.76,WNW,284,8.0,10.0,89,0.00,,,0.10,Wunderground v.1.15,2013-02-19 13:22:00,
2013-02-19 08:25:00,32.3,29.4,29.76,WSW,249,7.0,10.0,89,0.00,,,0.10,Wunderground v.1.15,2013-02-19 13:25:00,
2013-02-19 08:26:00,32.2,29.3,29.76,SW,225,7.0,10.0,89,0.00,,,0.10,Wunderground v.1.15,2013-02-19 13:26:00,
2013-02-19 08:27:00,32.2,29.3,29.76,WSW,254,7.0,10.0,89,0.00,,,0.10,Wunderground v.1.15,2013-02-19 13:27:00,
2013-02-19 08:31:00,32.0,29.1,29.77,WSW,246,7.0,16.0,89,0.00,,,0.10,Wunderground v.1.15,2013-02-19 13:31:00,
2013-02-19 08:34:00,32.0,29.1,29.77,SW,221,7.0,16.0,89,0.00,,,0.10,Wunderground v.1.15,2013-02-19 13:34:00,
2013-02-19 08:36:00,31.9,28.8,29.77,WSW,246,8.0,16.0,88,0.00,,,0.10,Wunderground v.1.15,2013-02-19 13:36:00,
2013-02-19 08:48:00,31.7,28.6,29.78,SW,215,7.0,7.0,88,0.00,,,0.10,Wunderground v.1.15,2013-02-19 13:48:00,
2013-02-19 08:50:00,31.4,28.0,29.78,NW,319,8.0,13.0,87,0.00,,,0.10,Wunderground v.1.15,2013-02-19 13:50:00,
2013-02-19 08:52:00,31.1,27.7,29.78,WSW,244,8.0,15.0,87,0.00,,,0.10,Wunderground v.1.15,2013-02-19 13:52:00,
2013-02-19 08:54:00,31.0,27.3,29.78,SW,222,8.0,15.0,86,0.00,,,0.10,Wunderground v.1.15,2013-02-19 13:54:00,
2013-02-19 08:59:00,30.7,27.0,29.78,SW,217,8.0,10.0,86,0.00,,,0.10,Wunderground v.1.15,2013-02-19 13:59:00,
2013-02-19 09:00:00,30.7,27.0,29.78,SSW,210,8.0,8.0,86,0.00,,,0.10,Wunderground v.1.15,2013-02-19 14:00:00,
2013-02-19 09:04:00,30.7,26.7,29.79,West,275,7.0,10.0,85,0.00,,,0.10,Wunderground v.1.15,2013-02-19 14:04:00,
2013-02-19 09:06:00,30.6,26.6,29.79,SW,223,7.0,10.0,85,0.00,,,0.10,Wunderground v.1.15,2013-02-19 14:06:00,
2013-02-19 09:08:00,30.6,26.6,29.79,SW,233,7.0,10.0,85,0.00,,,0.10,Wunderground v.1.15,2013-02-19 14:08:00,
2013-02-19 09:10:00,30.5,26.5,29.80,SW,236,7.0,7.0,85,0.00,,,0.10,Wunderground v.1.15,2013-02-19 14:10:00,
2013-02-19 09:11:00,30.4,26.4,29.80,WSW,242,7.0,8.0,85,0.00,,,0.10,Wunderground v.1.15,2013-02-19 14:11:00,
2013-02-19 09:13:00,30.2,26.2,29.80,SW,231,8.0,12.0,85,0.00,,,0.10,Wunderground v.1.15,2013-02-19 14:13:00,
2013-02-19 09:14:00,30.0,26.0,29.80,WSW,252,8.0,12.0,85,0.00,,,0.10,Wunderground v.1.15,2013-02-19 14:14:00,
2013-02-19 09:18:00,29.4,25.2,29.80,SW,226,10.0,19.0,84,0.00,,,0.10,Wunderground v.1.15,2013-02-19 14:18:00,
2013-02-19 09:19:00,29.2,24.7,29.80,SSE,148,10.0,19.0,83,0.00,,,0.10,Wunderground v.1.15,2013-02-19 14:19:00,
2013-02-19 09:20:00,29.1,24.9,29.80,West,267,10.0,10.0,84,0.00,,,0.10,Wunderground v.1.15,2013-02-19 14:20:00,
2013-02-19 09:24:00,28.9,24.7,29.80,SW,229,9.0,10.0,84,0.00,,,0.10,Wunderground v.1.15,2013-02-19 14:24:00,
2013-02-19 09:26:00,28.9,25.0,29.80,West,269,8.0,10.0,85,0.00,,,0.10,Wunderground v.1.15,2013-02-19 14:26:00,
2013-02-19 09:27:00,28.9,25.0,29.81,SW,233,8.0,10.0,85,0.00,,,0.10,Wunderground v.1.15,2013-02-19 14:27:00,
2013-02-19 09:29:00,28.9,25.0,29.80,SW,225,7.0,10.0,85,0.00,,,0.10,Wunderground v.1.15,2013-02-19 14:29:00,
2013-02-19 09:31:00,28.9,25.0,29.80,West,266,7.0,8.0,85,0.00,,,0.10,Wunderground v.1.15,2013-02-19 14:31:00,
2013-02-19 09:33:00,28.8,24.9,29.81,SW,217,7.0,8.0,85,0.00,,,0.10,Wunderground v.1.15,2013-02-19 14:33:00,
2013-02-19 09:37:00,28.8,24.9,29.81,SW,218,7.0,9.0,85,0.00,,,0.10,Wunderground v.1.15,2013-02-19 14:37:00,
2013-02-19 09:38:00,28.8,24.9,29.81,SW,233,7.0,9.0,85,0.00,,,0.10,Wunderground v.1.15,2013-02-19 14:38:00,
2013-02-19 09:39:00,28.8,24.9,29.81,WSW,245,7.0,9.0,85,0.00,,,0.10,Wunderground v.1.15,2013-02-19 14:39:00,
2013-02-19 09:41:00,28.7,24.8,29.81,SW,229,7.0,9.0,85,0.00,,,0.10,Wunderground v.1.15,2013-02-19 14:41:00,
2013-02-19 09:43:00,28.7,24.8,29.81,WSW,249,7.0,9.0,85,0.00,,,0.10,Wunderground v.1.15,2013-02-19 14:43:00,
2013-02-19 09:44:00,28.6,24.7,29.81,WSW,249,7.0,9.0,85,0.00,,,0.10,Wunderground v.1.15,2013-02-19 14:44:00,
2013-02-19 09:49:00,28.6,24.7,29.81,West,267,7.0,11.0,85,0.00,,,0.10,Wunderground v.1.15,2013-02-19 14:49:00,
2013-02-19 09:50:00,28.6,24.7,29.81,SW,233,7.0,7.0,85,0.00,,,0.10,Wunderground v.1.15,2013-02-19 14:50:00,
2013-02-19 09:51:00,28.5,24.6,29.81,WSW,252,7.0,7.0,85,0.00,,,0.10,Wunderground v.1.15,2013-02-19 14:51:00,
2013-02-19 09:53:00,28.5,24.6,29.81,SW,232,6.0,8.0,85,0.00,,,0.10,Wunderground v.1.15,2013-02-19 14:53:00,
2013-02-19 09:57:00,28.6,24.7,29.81,NW,304,6.0,9.0,85,0.00,,,0.10,Wunderground v.1.15,2013-02-19 14:57:00,
2013-02-19 09:59:00,28.6,24.7,29.81,WSW,237,6.0,10.0,85,0.00,,,0.10,Wunderground v.1.15,2013-02-19 14:59:00,
2013-02-19 10:00:00,28.5,24.6,29.81,SW,233,6.0,6.0,85,0.00,,,0.10,Wunderground v.1.15,2013-02-19 15:00:00,
2013-02-19 10:05:00,28.6,24.7,29.81,SW,225,6.0,8.0,85,0.00,,,0.10,Wunderground v.1.15,2013-02-19 15:05:00,
2013-02-19 10:06:00,28.6,24.7,29.81,West,262,6.0,8.0,85,0.00,,,0.10,Wunderground v.1.15,2013-02-19 15:06:00,
2013-02-19 10:09:00,28.6,24.7,29.81,West,267,5.0,8.0,85,0.00,,,0.10,Wunderground v.1.15,2013-02-19 15:09:00,
2013-02-19 10:10:00,28.6,24.7,29.81,SW,234,5.0,5.0,85,0.00,,,0.10,Wunderground v.1.15,2013-02-19 15:10:00,
2013-02-19 10:11:00,28.7,24.8,29.81,SW,233,5.0,5.0,85,0.00,,,0.10,Wunderground v.1.15,2013-02-19 15:11:00,
2013-02-19 10:14:00,28.7,24.8,29.81,SW,218,5.0,5.0,85,0.00,,,0.10,Wunderground v.1.15,2013-02-19 15:14:00,
2013-02-19 10:15:00,28.7,24.8,29.81,SW,232,5.0,7.0,85,0.00,,,0.10,Wunderground v.1.15,2013-02-19 15:15:00,
2013-02-19 10:17:00,28.7,24.8,29.81,SW,221,5.0,7.0,85,0.00,,,0.10,Wunderground v.1.15,2013-02-19 15:17:00,
2013-02-19 10:18:00,28.7,24.8,29.81,SW,219,5.0,7.0,85,0.00,,,0.10,Wunderground v.1.15,2013-02-19 15:18:00,
2013-02-19 10:20:00,28.7,26.7,29.81,SW,234,5.0,9.0,92,0.00,,,0.10,Wunderground v.1.15,2013-02-19 15:20:00,
2013-02-19 10:22:00,28.7,24.8,29.82,WSW,249,5.0,9.0,85,0.00,,,0.10,Wunderground v.1.15,2013-02-19 15:22:00,
2013-02-19 10:23:00,28.8,24.9,29.81,WSW,240,5.0,9.0,85,0.00,,,0.10,Wunderground v.1.15,2013-02-19 15:23:00,
2013-02-19 10:26:00,28.8,24.9,29.82,SW,234,5.0,9.0,85,0.00,,,0.10,Wunderground v.1.15,2013-02-19 15:26:00,
2013-02-19 10:29:00,28.8,24.9,29.81,SW,215,6.0,9.0,85,0.00,,,0.10,Wunderground v.1.15,2013-02-19 15:29:00,
2013-02-19 10:30:00,28.8,24.6,29.82,WSW,249,7.0,8.0,84,0.00,,,0.10,Wunderground v.1.15,2013-02-19 15:30:00,
2013-02-19 10:31:00,28.8,24.3,29.81,SW,223,7.0,9.0,83,0.00,,,0.10,Wunderground v.1.15,2013-02-19 15:31:00,
2013-02-19 10:32:00,28.8,24.3,29.82,WSW,243,8.0,9.0,83,0.00,,,0.10,Wunderground v.1.15,2013-02-19 15:32:00,
2013-02-19 10:35:00,28.9,24.4,29.82,SW,232,8.0,12.0,83,0.00,,,0.10,Wunderground v.1.15,2013-02-19 15:35:00,
2013-02-19 10:37:00,28.9,24.1,29.82,WNW,295,9.0,12.0,82,0.00,,,0.10,Wunderground v.1.15,2013-02-19 15:37:00,
2013-02-19 10:38:00,28.9,24.1,29.82,SW,234,8.0,12.0,82,0.00,,,0.10,Wunderground v.1.15,2013-02-19 15:38:00,
2013-02-19 10:40:00,29.0,24.2,29.82,SSW,206,8.0,8.0,82,0.00,,,0.10,Wunderground v.1.15,2013-02-19 15:40:00,
2013-02-19 10:43:00,28.9,24.1,29.82,West,264,8.0,9.0,82,0.00,,,0.10,Wunderground v.1.15,2013-02-19 15:43:00,
2013-02-19 10:45:00,28.9,24.1,29.82,SW,233,8.0,11.0,82,0.00,,,0.10,Wunderground v.1.15,2013-02-19 15:45:00,
2013-02-19 10:49:00,28.9,24.1,29.82,WSW,250,8.0,11.0,82,0.00,,,0.10,Wunderground v.1.15,2013-02-19 15:49:00,
2013-02-19 10:50:00,28.9,24.1,29.82,WSW,237,8.0,8.0,82,0.00,,,0.10,Wunderground v.1.15,2013-02-19 15:50:00,
2013-02-19 10:52:00,29.0,24.2,29.82,SW,230,8.0,8.0,82,0.00,,,0.10,Wunderground v.1.15,2013-02-19 15:52:00,
2013-02-19 10:54:00,29.0,24.2,29.83,SE,144,7.0,9.0,82,0.00,,,0.10,Wunderground v.1.15,2013-02-19 15:54:00,
2013-02-19 10:59:00,29.0,24.2,29.83,WSW,255,6.0,11.0,82,0.00,,,0.10,Wunderground v.1.15,2013-02-19 15:59:00,
2013-02-19 11:00:00,29.0,24.2,29.83,West,259,6.0,12.0,82,0.00,,,0.10,Wunderground v.1.15,2013-02-19 16:00:00,
2013-02-19 11:01:00,28.9,24.1,29.83,SSW,206,7.0,12.0,82,0.00,,,0.10,Wunderground v.1.15,2013-02-19 16:01:00,
2013-02-19 11:05:00,29.0,24.2,29.82,WSW,249,7.0,12.0,82,0.00,,,0.10,Wunderground v.1.15,2013-02-19 16:05:00,
2013-02-19 11:06:00,29.0,24.5,29.83,West,265,7.0,12.0,83,0.00,,,0.10,Wunderground v.1.15,2013-02-19 16:06:00,
2013-02-19 11:07:00,29.0,24.5,29.83,South,172,7.0,12.0,83,0.00,,,0.10,Wunderground v.1.15,2013-02-19 16:07:00,
2013-02-19 11:09:00,28.9,24.4,29.83,SSW,198,7.0,12.0,83,0.00,,,0.10,Wunderground v.1.15,2013-02-19 16:09:00,
2013-02-19 11:11:00,28.9,24.4,29.83,SSW,198,6.0,7.0,83,0.00,,,0.10,Wunderground v.1.15,2013-02-19 16:11:00,
2013-02-19 11:14:00,29.0,24.5,29.83,WSW,256,6.0,8.0,83,0.00,,,0.10,Wunderground v.1.15,2013-02-19 16:14:00,
2013-02-19 11:16:00,28.9,24.4,29.83,SW,231,6.0,8.0,83,0.00,,,0.10,Wunderground v.1.15,2013-02-19 16:16:00,
2013-02-19 11:17:00,28.9,24.4,29.83,WSW,237,6.0,8.0,83,0.00,,,0.10,Wunderground v.1.15,2013-02-19 16:17:00,
2013-02-19 11:21:00,28.9,24.7,29.83,West,266,6.0,10.0,84,0.00,,,0.10,Wunderground v.1.15,2013-02-19 16:21:00,
2013-02-19 11:22:00,28.9,24.7,29.83,SSE,165,6.0,10.0,84,0.00,,,0.10,Wunderground v.1.15,2013-02-19 16:22:00,
2013-02-19 11:25:00,28.8,24.9,29.83,WSW,248,6.0,10.0,85,0.00,,,0.10,Wunderground v.1.15,2013-02-19 16:25:00,
2013-02-19 11:28:00,28.1,23.9,29.84,SW,235,6.0,12.0,84,0.00,,,0.10,Wunderground v.1.15,2013-02-19 16:28:00,
2013-02-19 11:29:00,27.8,23.3,29.84,WNW,293,7.0,12.0,83,0.00,,,0.10,Wunderground v.1.15,2013-02-19 16:29:00,
2013-02-19 11:30:00,27.6,23.4,29.84,South,178,7.0,7.0,84,0.00,,,0.10,Wunderground v.1.15,2013-02-19 16:30:00,
2013-02-19 11:32:00,27.0,22.8,29.84,WSW,246,7.0,7.0,84,0.00,,,0.10,Wunderground v.1.15,2013-02-19 16:32:00,
2013-02-19 11:35:00,26.6,22.7,29.84,SW,221,7.0,15.0,85,0.00,,,0.10,Wunderground v.1.15,2013-02-19 16:35:00,
2013-02-19 11:36:00,26.5,22.3,29.84,West,272,8.0,15.0,84,0.00,,,0.10,Wunderground v.1.15,2013-02-19 16:36:00,
2013-02-19 11:39:00,26.3,22.1,29.84,SSW,198,7.0,15.0,84,0.00,,,0.10,Wunderground v.1.15,2013-02-19 16:39:00,
2013-02-19 11:40:00,26.3,22.1,29.84,South,183,7.0,7.0,84,0.00,,,0.10,Wunderground v.1.15,2013-02-19 16:40:00,
2013-02-19 11:45:00,26.3,22.1,29.84,WSW,248,8.0,23.0,84,0.00,,,0.10,Wunderground v.1.15,2013-02-19 16:45:00,
2013-02-19 11:46:00,26.4,22.2,29.84,WSW,256,8.0,23.0,84,0.00,,,0.10,Wunderground v.1.15,2013-02-19 16:46:00,
2013-02-19 11:49:00,26.6,22.4,29.84,SW,225,8.0,23.0,84,0.00,,,0.10,Wunderground v.1.15,2013-02-19 16:49:00,
2013-02-19 11:53:00,26.7,22.5,29.84,WNW,299,7.0,9.0,84,0.00,,,0.10,Wunderground v.1.15,2013-02-19 16:53:00,
2013-02-19 11:54:00,26.7,22.5,29.84,SW,218,7.0,9.0,84,0.00,,,0.10,Wunderground v.1.15,2013-02-19 16:54:00,
2013-02-19 11:55:00,26.7,22.5,29.84,SSW,196,7.0,9.0,84,0.00,,,0.10,Wunderground v.1.15,2013-02-19 16:55:00,
2013-02-19 11:58:00,26.8,22.6,29.84,West,265,7.0,9.0,84,0.00,,,0.10,Wunderground v.1.15,2013-02-19 16:58:00,
2013-02-19 12:01:00,26.9,22.7,29.84,WSW,251,7.0,13.0,84,0.00,,,0.10,Wunderground v.1.15,2013-02-19 17:01:00,
2013-02-19 12:03:00,26.9,22.4,29.84,WSW,255,7.0,13.0,83,0.00,,,0.10,Wunderground v.1.15,2013-02-19 17:03:00,
2013-02-19 12:04:00,26.9,22.4,29.84,SSW,205,7.0,13.0,83,0.00,,,0.10,Wunderground v.1.15,2013-02-19 17:04:00,
2013-02-19 12:08:00,26.9,22.1,29.84,West,271,8.0,13.0,82,0.00,,,0.10,Wunderground v.1.15,2013-02-19 17:08:00,
2013-02-19 12:10:00,26.9,22.1,29.84,SSW,207,8.0,13.0,82,0.00,,,0.10,Wunderground v.1.15,2013-02-19 17:10:00,
2013-02-19 12:13:00,26.9,22.4,29.84,SW,236,7.0,13.0,83,0.00,,,0.10,Wunderground v.1.15,2013-02-19 17:13:00,
2013-02-19 12:16:00,27.0,22.5,29.84,West,264,7.0,13.0,83,0.00,,,0.10,Wunderground v.1.15,2013-02-19 17:16:00,
2013-02-19 12:17:00,27.0,22.5,29.84,SSW,194,7.0,13.0,83,0.00,,,0.10,Wunderground v.1.15,2013-02-19 17:17:00,
2013-02-19 12:19:00,27.0,22.5,29.84,SW,222,7.0,13.0,83,0.00,,,0.10,Wunderground v.1.15,2013-02-19 17:19:00,
2013-02-19 12:24:00,27.1,22.6,29.84,SSE,152,7.0,7.0,83,0.00,,,0.10,Wunderground v.1.15,2013-02-19 17:24:00,
2013-02-19 12:25:00,27.1,22.6,29.84,WSW,255,7.0,13.0,83,0.00,,,0.10,Wunderground v.1.15,2013-02-19 17:25:00,
2013-02-19 12:27:00,27.1,22.3,29.84,South,191,8.0,13.0,82,0.00,,,0.10,Wunderground v.1.15,2013-02-19 17:27:00,
2013-02-19 12:29:00,27.1,22.3,29.84,SSW,196,8.0,13.0,82,0.00,,,0.10,Wunderground v.1.15,2013-02-19 17:29:00,
2013-02-19 12:33:00,27.2,22.1,29.84,SE,143,8.0,10.0,81,0.00,,,0.10,Wunderground v.1.15,2013-02-19 17:33:00,
2013-02-19 12:35:00,27.3,22.5,29.83,WSW,244,8.0,10.0,82,0.00,,,0.10,Wunderground v.1.15,2013-02-19 17:35:00,
2013-02-19 12:36:00,27.3,22.5,29.83,South,191,8.0,10.0,82,0.00,,,0.10,Wunderground v.1.15,2013-02-19 17:36:00,
2013-02-19 12:38:00,27.4,22.6,29.83,WSW,238,7.0,10.0,82,0.00,,,0.10,Wunderground v.1.15,2013-02-19 17:38:00,
2013-02-19 12:39:00,27.4,22.6,29.83,SSE,161,8.0,10.0,82,0.00,,,0.10,Wunderground v.1.15,2013-02-19 17:39:00,
2013-02-19 12:43:00,27.4,22.6,29.83,SW,223,7.0,8.0,82,0.00,,,0.10,Wunderground v.1.15,2013-02-19 17:43:00,
2013-02-19 12:44:00,27.5,22.7,29.83,WSW,249,7.0,11.0,82,0.00,,,0.10,Wunderground v.1.15,2013-02-19 17:44:00,
2013-02-19 12:45:00,27.5,22.7,29.83,SSW,213,8.0,11.0,82,0.00,,,0.10,Wunderground v.1.15,2013-02-19 17:45:00,
2013-02-19 12:49:00,27.8,23.3,29.83,WSW,248,8.0,14.0,83,0.00,,,0.10,Wunderground v.1.15,2013-02-19 17:49:00,
2013-02-19 12:50:00,27.8,23.0,29.83,SW,222,8.0,9.0,82,0.00,,,0.10,Wunderground v.1.15,2013-02-19 17:50:00,
2013-02-19 12:51:00,27.9,23.1,29.83,West,269,8.0,9.0,82,0.00,,,0.10,Wunderground v.1.15,2013-02-19 17:51:00,
2013-02-19 12:53:00,28.1,23.6,29.83,SW,217,8.0,11.0,83,0.00,,,0.10,Wunderground v.1.15,2013-02-19 17:53:00,
2013-02-19 12:56:00,28.3,23.8,29.83,WSW,246,8.0,11.0,83,0.00,,,0.10,Wunderground v.1.15,2013-02-19 17:56:00,
2013-02-19 12:58:00,28.5,24.0,29.83,South,172,8.0,11.0,83,0.00,,,0.10,Wunderground v.1.15,2013-02-19 17:58:00,
2013-02-19 12:59:00,28.5,24.0,29.83,SE,146,8.0,11.0,83,0.00,,,0.10,Wunderground v.1.15,2013-02-19 17:59:00,
2013-02-19 13:03:00,28.7,23.9,29.83,West,259,6.0,9.0,82,0.00,,,0.10,Wunderground v.1.15,2013-02-19 18:03:00,
2013-02-19 13:04:00,28.7,23.9,29.83,SW,225,6.0,9.0,82,0.00,,,0.10,Wunderground v.1.15,2013-02-19 18:04:00,
2013-02-19 13:05:00,28.7,23.9,29.83,WSW,244,6.0,9.0,82,0.00,,,0.10,Wunderground v.1.15,2013-02-19 18:05:00,
2013-02-19 13:10:00,28.6,23.8,29.83,SW,226,7.0,7.0,82,0.00,,,0.10,Wunderground v.1.15,2013-02-19 18:10:00,
2013-02-19 13:11:00,28.6,24.1,29.83,SSE,152,7.0,9.0,83,0.00,,,0.10,Wunderground v.1.15,2013-02-19 18:11:00,
2013-02-19 13:13:00,28.7,23.9,29.83,SW,233,8.0,9.0,82,0.00,,,0.10,Wunderground v.1.15,2013-02-19 18:13:00,
2013-02-19 13:16:00,28.7,23.9,29.83,SW,234,8.0,11.0,82,0.00,,,0.10,Wunderground v.1.15,2013-02-19 18:16:00,
2013-02-19 13:17:00,28.7,23.9,29.83,South,172,8.0,11.0,82,0.00,,,0.10,Wunderground v.1.15,2013-02-19 18:17:00,
2013-02-19 13:18:00,28.7,23.9,29.83,ESE,123,8.0,11.0,82,0.00,,,0.10,Wunderground v.1.15,2013-02-19 18:18:00,
2013-02-19 13:21:00,28.5,23.7,29.83,WSW,250,9.0,9.0,82,0.00,,,0.10,Wunderground v.1.15,2013-02-19 18:21:00,
2013-02-19 13:22:00,28.4,23.6,29.83,South,184,9.0,12.0,82,0.00,,,0.10,Wunderground v.1.15,2013-02-19 18:22:00,
2013-02-19 13:25:00,28.2,23.4,29.83,WSW,251,10.0,12.0,82,0.00,,,0.10,Wunderground v.1.15,2013-02-19 18:25:00,
2013-02-19 13:28:00,28.0,23.5,29.83,SW,227,10.0,12.0,83,0.00,,,0.10,Wunderground v.1.15,2013-02-19 18:28:00,
2013-02-19 13:31:00,28.0,23.5,29.83,SSW,211,9.0,12.0,83,0.00,,,0.10,Wunderground v.1.15,2013-02-19 18:31:00,
2013-02-19 13:32:00,27.9,23.4,29.83,SW,223,9.0,12.0,83,0.00,,,0.10,Wunderground v.1.15,2013-02-19 18:32:00,
2013-02-19 13:34:00,27.8,23.3,29.83,SSW,208,9.0,15.0,83,0.00,,,0.10,Wunderground v.1.15,2013-02-19 18:34:00,
2013-02-19 13:39:00,28.1,23.3,29.84,West,273,9.0,15.0,82,0.00,,,0.10,Wunderground v.1.15,2013-02-19 18:39:00,
2013-02-19 13:41:00,28.2,23.1,29.84,South,172,10.0,12.0,81,0.00,,,0.10,Wunderground v.1.15,2013-02-19 18:41:00,
2013-02-19 13:42:00,28.3,23.2,29.84,WSW,237,10.0,12.0,81,0.00,,,0.10,Wunderground v.1.15,2013-02-19 18:42:00,
2013-02-19 13:46:00,28.2,22.8,29.85,SW,234,10.0,14.0,80,0.00,,,0.10,Wunderground v.1.15,2013-02-19 18:46:00,
2013-02-19 13:48:00,28.1,22.4,29.85,SSW,211,10.0,19.0,79,0.00,,,0.10,Wunderground v.1.15,2013-02-19 18:48:00,
2013-02-19 13:51:00,27.8,21.8,29.85,SW,215,11.0,14.0,78,0.00,,,0.10,Wunderground v.1.15,2013-02-19 18:51:00,
2013-02-19 13:52:00,27.7,21.7,29.85,WSW,249,11.0,14.0,78,0.00,,,0.10,Wunderground v.1.15,2013-02-19 18:52:00,
2013-02-19 13:53:00,27.6,21.6,29.85,SW,226,11.0,14.0,78,0.00,,,0.10,Wunderground v.1.15,2013-02-19 18:53:00,
2013-02-19 13:54:00,27.6,21.6,29.85,SSW,213,11.0,14.0,78,0.00,,,0.10,Wunderground v.1.15,2013-02-19 18:54:00,
2013-02-19 13:57:00,27.6,21.3,29.86,West,267,11.0,14.0,77,0.00,,,0.10,Wunderground v.1.15,2013-02-19 18:57:00,
2013-02-19 14:00:00,27.5,20.9,29.86,SW,227,11.0,16.0,76,0.00,,,0.10,Wunderground v.1.15,2013-02-19 19:00:00,
2013-02-19 14:04:00,27.6,21.0,29.86,SSW,193,11.0,16.0,76,0.00,,,0.10,Wunderground v.1.15,2013-02-19 19:04:00,
2013-02-19 14:05:00,27.7,21.1,29.86,WSW,244,11.0,16.0,76,0.00,,,0.10,Wunderground v.1.15,2013-02-19 19:05:00,
2013-02-19 14:06:00,27.7,21.4,29.86,SSW,213,11.0,16.0,77,0.00,,,0.10,Wunderground v.1.15,2013-02-19 19:06:00,
2013-02-19 14:10:00,27.6,21.0,29.86,SW,220,11.0,12.0,76,0.00,,,0.10,Wunderground v.1.15,2013-02-19 19:10:00,
2013-02-19 14:12:00,27.4,20.5,29.87,West,260,10.0,12.0,75,0.00,,,0.10,Wunderground v.1.15,2013-02-19 19:12:00,
2013-02-19 14:14:00,27.4,20.8,29.87,West,279,10.0,12.0,76,0.00,,,0.10,Wunderground v.1.15,2013-02-19 19:14:00,
2013-02-19 14:19:00,27.3,20.7,29.87,WSW,251,9.0,12.0,76,0.00,,,0.10,Wunderground v.1.15,2013-02-19 19:19:00,
2013-02-19 14:21:00,27.3,20.7,29.87,West,268,8.0,14.0,76,0.00,,,0.10,Wunderground v.1.15,2013-02-19 19:21:00,
2013-02-19 14:23:00,27.3,20.7,29.87,SE,146,9.0,14.0,76,0.00,,,0.10,Wunderground v.1.15,2013-02-19 19:23:00,
2013-02-19 14:24:00,27.3,20.7,29.87,SW,233,9.0,14.0,76,0.00,,,0.10,Wunderground v.1.15,2013-02-19 19:24:00,
2013-02-19 14:28:00,27.2,20.6,29.87,West,261,11.0,14.0,76,0.00,,,0.10,Wunderground v.1.15,2013-02-19 19:28:00,
2013-02-19 14:30:00,27.2,20.9,29.87,SW,219,11.0,14.0,77,0.00,,,0.10,Wunderground v.1.15,2013-02-19 19:30:00,
2013-02-19 14:33:00,27.2,20.9,29.87,SSW,209,10.0,14.0,77,0.00,,,0.10,Wunderground v.1.15,2013-02-19 19:33:00,
2013-02-19 14:34:00,27.2,20.9,29.87,WSW,244,10.0,14.0,77,0.00,,,0.10,Wunderground v.1.15,2013-02-19 19:34:00,
2013-02-19 14:36:00,27.3,21.3,29.87,West,260,10.0,14.0,78,0.00,,,0.10,Wunderground v.1.15,2013-02-19 19:36:00,
2013-02-19 14:37:00,27.4,21.4,29.87,WSW,245,9.0,14.0,78,0.00,,,0.10,Wunderground v.1.15,2013-02-19 19:37:00,
2013-02-19 14:41:00,27.5,21.5,29.87,WSW,254,8.0,9.0,78,0.00,,,0.10,Wunderground v.1.15,2013-02-19 19:41:00,
2013-02-19 14:42:00,27.5,21.5,29.87,SW,218,8.0,11.0,78,0.00,,,0.10,Wunderground v.1.15,2013-02-19 19:42:00,
2013-02-19 14:44:00,27.5,21.8,29.87,SW,236,8.0,11.0,79,0.00,,,0.10,Wunderground v.1.15,2013-02-19 19:44:00,
2013-02-19 14:46:00,27.5,21.8,29.87,SW,225,8.0,11.0,79,0.00,,,0.10,Wunderground v.1.15,2013-02-19 19:46:00,
2013-02-19 14:47:00,27.5,21.8,29.87,SSE,161,8.0,11.0,79,0.00,,,0.10,Wunderground v.1.15,2013-02-19 19:47:00,
2013-02-19 14:50:00,27.6,22.2,29.87,WSW,246,7.0,8.0,80,0.00,,,0.10,Wunderground v.1.15,2013-02-19 19:50:00,
2013-02-19 14:51:00,27.6,22.2,29.88,West,262,8.0,8.0,80,0.00,,,0.10,Wunderground v.1.15,2013-02-19 19:51:00,
2013-02-19 15:02:00,27.7,22.0,29.88,WNW,286,8.0,8.0,79,0.00,,,0.10,Wunderground v.1.15,2013-02-19 20:02:00,
2013-02-19 15:04:00,27.7,22.0,29.88,West,261,8.0,8.0,79,0.00,,,0.10,Wunderground v.1.15,2013-02-19 20:04:00,
2013-02-19 15:08:00,27.7,22.3,29.88,SW,234,8.0,14.0,80,0.00,,,0.10,Wunderground v.1.15,2013-02-19 20:08:00,
2013-02-19 15:09:00,27.8,22.7,29.88,WNW,288,8.0,14.0,81,0.00,,,0.10,Wunderground v.1.15,2013-02-19 20:09:00,
2013-02-19 15:11:00,27.7,22.6,29.88,West,280,7.0,14.0,81,0.00,,,0.10,Wunderground v.1.15,2013-02-19 20:11:00,
2013-02-19 15:13:00,27.6,22.5,29.88,SW,225,7.0,10.0,81,0.00,,,0.10,Wunderground v.1.15,2013-02-19 20:13:00,
2013-02-19 15:16:00,27.2,22.4,29.89,WSW,238,7.0,10.0,82,0.00,,,0.10,Wunderground v.1.15,2013-02-19 20:16:00,
2013-02-19 15:17:00,27.2,22.4,29.89,WSW,238,7.0,10.0,82,0.00,,,0.10,Wunderground v.1.15,2013-02-19 20:17:00,
2013-02-19 15:18:00,27.1,22.3,29.89,WSW,257,7.0,10.0,82,0.00,,,0.10,Wunderground v.1.15,2013-02-19 20:18:00,
2013-02-19 15:19:00,27.0,22.2,29.89,SSW,203,7.0,10.0,82,0.00,,,0.10,Wunderground v.1.15,2013-02-19 20:19:00,
2013-02-19 15:24:00,26.9,22.4,29.89,WNW,294,8.0,10.0,83,0.00,,,0.10,Wunderground v.1.15,2013-02-19 20:24:00,
2013-02-19 15:25:00,26.8,22.3,29.89,WSW,242,8.0,10.0,83,0.00,,,0.10,Wunderground v.1.15,2013-02-19 20:25:00,
2013-02-19 15:26:00,26.8,22.3,29.89,West,270,8.0,10.0,83,0.00,,,0.10,Wunderground v.1.15,2013-02-19 20:26:00,
2013-02-19 15:29:00,26.9,22.4,29.89,SW,216,8.0,11.0,83,0.00,,,0.10,Wunderground v.1.15,2013-02-19 20:29:00,
2013-02-19 15:33:00,27.0,22.5,29.90,WNW,290,7.0,8.0,83,0.00,,,0.10,Wunderground v.1.15,2013-02-19 20:33:00,
2013-02-19 15:36:00,26.9,22.4,29.90,WSW,245,8.0,11.0,83,0.00,,,0.10,Wunderground v.1.15,2013-02-19 20:36:00,
2013-02-19 15:38:00,26.8,22.3,29.90,West,265,8.0,11.0,83,0.00,,,0.10,Wunderground v.1.15,2013-02-19 20:38:00,
2013-02-19 15:40:00,26.7,22.2,29.90,West,261,8.0,13.0,83,0.00,,,0.10,Wunderground v.1.15,2013-02-19 20:40:00,
2013-02-19 15:42:00,26.6,22.1,29.90,WSW,250,9.0,9.0,83,0.00,,,0.10,Wunderground v.1.15,2013-02-19 20:42:00,
2013-02-19 15:46:00,26.6,22.1,29.90,SSW,206,8.0,9.0,83,0.00,,,0.10,Wunderground v.1.15,2013-02-19 20:46:00,
2013-02-19 15:47:00,26.6,22.1,29.90,WSW,250,8.0,11.0,83,0.00,,,0.10,Wunderground v.1.15,2013-02-19 20:47:00,
2013-02-19 15:49:00,26.5,22.0,29.90,SSW,202,8.0,13.0,83,0.00,,,0.10,Wunderground v.1.15,2013-02-19 20:49:00,
2013-02-19 15:50:00,26.5,22.0,29.90,South,184,8.0,13.0,83,0.00,,,0.10,Wunderground v.1.15,2013-02-19 20:50:00,
2013-02-19 15:55:00,26.5,22.0,29.91,West,263,8.0,15.0,83,0.00,,,0.10,Wunderground v.1.15,2013-02-19 20:55:00,
2013-02-19 15:56:00,26.4,21.7,29.91,SW,227,8.0,15.0,82,0.00,,,0.10,Wunderground v.1.15,2013-02-19 20:56:00,
2013-02-19 16:00:00,26.3,21.6,29.91,SW,214,8.0,8.0,82,0.00,,,0.10,Wunderground v.1.15,2013-02-19 21:00:00,
2013-02-19 16:03:00,26.1,21.4,29.91,SE,146,10.0,10.0,82,0.00,,,0.10,Wunderground v.1.15,2013-02-19 21:03:00,
2013-02-19 16:04:00,26.0,21.0,29.92,SW,218,10.0,10.0,81,0.00,,,0.10,Wunderground v.1.15,2013-02-19 21:04:00,
2013-02-19 16:09:00,25.6,20.3,29.92,West,273,11.0,16.0,80,0.00,,,0.10,Wunderground v.1.15,2013-02-19 21:09:00,
2013-02-19 16:11:00,25.5,20.2,29.92,West,259,11.0,11.0,80,0.00,,,0.10,Wunderground v.1.15,2013-02-19 21:11:00,
2013-02-19 16:12:00,25.6,20.0,29.92,South,181,11.0,13.0,79,0.00,,,0.10,Wunderground v.1.15,2013-02-19 21:12:00,
2013-02-19 16:15:00,25.7,19.8,29.92,SW,234,12.0,15.0,78,0.00,,,0.10,Wunderground v.1.15,2013-02-19 21:15:00,
2013-02-19 16:17:00,25.8,19.6,29.92,WNW,294,11.0,25.0,77,0.00,,,0.10,Wunderground v.1.15,2013-02-19 21:17:00,
2013-02-19 16:20:00,26.0,19.2,29.93,South,182,10.0,18.0,75,0.00,,,0.10,Wunderground v.1.15,2013-02-19 21:20:00,
2013-02-19 16:23:00,26.0,18.8,29.93,WSW,256,10.0,18.0,74,0.00,,,0.10,Wunderground v.1.15,2013-02-19 21:23:00,
2013-02-19 16:24:00,26.0,18.8,29.93,West,273,10.0,18.0,74,0.00,,,0.10,Wunderground v.1.15,2013-02-19 21:24:00,
2013-02-19 16:25:00,26.1,18.9,29.93,West,266,10.0,18.0,74,0.00,,,0.10,Wunderground v.1.15,2013-02-19 21:25:00,
2013-02-19 16:29:00,26.1,18.6,29.93,SW,228,10.0,18.0,73,0.00,,,0.10,Wunderground v.1.15,2013-02-19 21:29:00,
2013-02-19 16:30:00,26.1,18.6,29.93,WSW,253,10.0,18.0,73,0.00,,,0.10,Wunderground v.1.15,2013-02-19 21:30:00,
2013-02-19 16:35:00,26.0,18.5,29.94,SW,236,10.0,19.0,73,0.00,,,0.10,Wunderground v.1.15,2013-02-19 21:35:00,
2013-02-19 16:36:00,26.0,18.5,29.93,SW,232,11.0,19.0,73,0.00,,,0.10,Wunderground v.1.15,2013-02-19 21:36:00,
2013-02-19 16:37:00,25.9,18.4,29.94,SSW,213,11.0,19.0,73,0.00,,,0.10,Wunderground v.1.15,2013-02-19 21:37:00,
2013-02-19 16:40:00,26.0,18.5,29.94,South,178,11.0,11.0,73,0.00,,,0.10,Wunderground v.1.15,2013-02-19 21:40:00,
2013-02-19 16:42:00,25.9,18.4,29.94,SW,234,11.0,11.0,73,0.00,,,0.10,Wunderground v.1.15,2013-02-19 21:42:00,
2013-02-19 16:46:00,25.8,18.7,29.94,NW,315,10.0,15.0,74,0.00,,,0.10,Wunderground v.1.15,2013-02-19 21:46:00,
2013-02-19 16:47:00,25.8,18.7,29.94,SW,236,10.0,15.0,74,0.00,,,0.10,Wunderground v.1.15,2013-02-19 21:47:00,
2013-02-19 16:49:00,25.7,18.6,29.94,West,264,10.0,15.0,74,0.00,,,0.10,Wunderground v.1.15,2013-02-19 21:49:00,
2013-02-19 16:52:00,25.7,18.9,29.94,WSW,247,9.0,10.0,75,0.00,,,0.10,Wunderground v.1.15,2013-02-19 21:52:00,
2013-02-19 16:56:00,25.6,18.8,29.94,SW,226,8.0,10.0,75,0.00,,,0.10,Wunderground v.1.15,2013-02-19 21:56:00,
2013-02-19 16:57:00,25.6,19.1,29.94,SW,236,8.0,10.0,76,0.00,,,0.10,Wunderground v.1.15,2013-02-19 21:57:00,
2013-02-19 17:01:00,25.5,19.3,29.95,WSW,241,7.0,8.0,77,0.00,,,0.10,Wunderground v.1.15,2013-02-19 22:01:00,
2013-02-19 17:02:00,25.5,19.3,29.95,West,263,7.0,11.0,77,0.00,,,0.10,Wunderground v.1.15,2013-02-19 22:02:00,
2013-02-19 17:06:00,25.4,19.5,29.95,WNW,297,8.0,11.0,78,0.00,,,0.10,Wunderground v.1.15,2013-02-19 22:06:00,
2013-02-19 17:07:00,25.4,19.5,29.95,West,273,7.0,11.0,78,0.00,,,0.10,Wunderground v.1.15,2013-02-19 22:07:00,
2013-02-19 17:09:00,25.4,19.5,29.95,WNW,292,6.0,11.0,78,0.00,,,0.10,Wunderground v.1.15,2013-02-19 22:09:00,
2013-02-19 17:10:00,25.4,19.8,29.95,WSW,255,6.0,7.0,79,0.00,,,0.10,Wunderground v.1.15,2013-02-19 22:10:00,
2013-02-19 17:13:00,25.3,19.7,29.95,WSW,254,6.0,11.0,79,0.00,,,0.10,Wunderground v.1.15,2013-02-19 22:13:00,
2013-02-19 17:15:00,25.3,19.7,29.95,SSW,213,6.0,12.0,79,0.00,,,0.10,Wunderground v.1.15,2013-02-19 22:15:00,
2013-02-19 17:16:00,25.2,19.6,29.95,WSW,258,6.0,12.0,79,0.00,,,0.10,Wunderground v.1.15,2013-02-19 22:16:00,
2013-02-19 17:18:00,25.2,19.6,29.95,SW,225,7.0,12.0,79,0.00,,,0.10,Wunderground v.1.15,2013-02-19 22:18:00,
2013-02-19 17:21:00,25.2,19.3,29.96,SSW,209,7.0,10.0,78,0.00,,,0.10,Wunderground v.1.15,2013-02-19 22:21:00,
2013-02-19 17:24:00,25.2,19.3,29.96,WSW,252,8.0,16.0,78,0.00,,,0.10,Wunderground v.1.15,2013-02-19 22:24:00,
2013-02-19 17:27:00,25.3,19.4,29.96,SW,222,7.0,16.0,78,0.00,,,0.10,Wunderground v.1.15,2013-02-19 22:27:00,
2013-02-19 17:28:00,25.3,19.4,29.96,WSW,248,7.0,16.0,78,0.00,,,0.10,Wunderground v.1.15,2013-02-19 22:28:00,
2013-02-19 17:30:00,25.3,19.7,29.96,West,259,8.0,8.0,79,0.00,,,0.10,Wunderground v.1.15,2013-02-19 22:30:00,
2013-02-19 17:34:00,25.2,19.6,29.97,West,280,8.0,12.0,79,0.00,,,0.10,Wunderground v.1.15,2013-02-19 22:34:00,
2013-02-19 17:35:00,25.2,19.6,29.97,WSW,252,8.0,12.0,79,0.00,,,0.10,Wunderground v.1.15,2013-02-19 22:35:00,
2013-02-19 17:36:00,25.2,19.6,29.97,WSW,252,8.0,12.0,79,0.00,,,0.10,Wunderground v.1.15,2013-02-19 22:36:00,
2013-02-19 17:37:00,25.2,19.9,29.97,WNW,302,8.0,12.0,80,0.00,,,0.10,Wunderground v.1.15,2013-02-19 22:37:00,
2013-02-19 17:41:00,25.1,20.1,29.97,SSW,198,8.0,8.0,81,0.00,,,0.10,Wunderground v.1.15,2013-02-19 22:41:00,
2013-02-19 17:42:00,25.1,20.1,29.97,WNW,292,7.0,8.0,81,0.00,,,0.10,Wunderground v.1.15,2013-02-19 22:42:00,
2013-02-19 17:43:00,25.1,20.4,29.97,WSW,247,7.0,8.0,82,0.00,,,0.10,Wunderground v.1.15,2013-02-19 22:43:00,
2013-02-19 17:45:00,25.1,20.4,29.98,SW,236,6.0,9.0,82,0.00,,,0.10,Wunderground v.1.15,2013-02-19 22:45:00,
2013-02-19 17:47:00,25.0,20.3,29.98,WSW,238,6.0,9.0,82,0.00,,,0.10,Wunderground v.1.15,2013-02-19 22:47:00,
2013-02-19 17:49:00,24.9,20.5,29.98,WNW,286,6.0,14.0,83,0.00,,,0.10,Wunderground v.1.15,2013-02-19 22:49:00,
2013-02-19 17:50:00,24.8,20.4,29.98,NW,310,6.0,7.0,83,0.00,,,0.10,Wunderground v.1.15,2013-02-19 22:50:00,
2013-02-19 17:54:00,24.6,20.7,29.98,WSW,252,7.0,9.0,85,0.00,,,0.10,Wunderground v.1.15,2013-02-19 22:54:00,
2013-02-19 17:56:00,24.5,20.6,29.98,WSW,253,8.0,9.0,85,0.00,,,0.10,Wunderground v.1.15,2013-02-19 22:56:00,
2013-02-19 17:57:00,24.5,20.6,29.98,SW,230,8.0,9.0,85,0.00,,,0.10,Wunderground v.1.15,2013-02-19 22:57:00,
2013-02-19 18:01:00,24.4,20.8,29.98,WSW,245,7.0,11.0,86,0.00,,,0.10,Wunderground v.1.15,2013-02-19 23:01:00,
2013-02-19 18:03:00,24.4,20.8,29.98,West,261,7.0,11.0,86,0.00,,,0.10,Wunderground v.1.15,2013-02-19 23:03:00,
2013-02-19 18:04:00,24.4,20.8,29.99,WSW,249,7.0,11.0,86,0.00,,,0.10,Wunderground v.1.15,2013-02-19 23:04:00,
2013-02-19 18:06:00,24.4,20.8,29.99,SSW,199,7.0,13.0,86,0.00,,,0.10,Wunderground v.1.15,2013-02-19 23:06:00,
2013-02-19 18:08:00,24.4,20.8,29.99,South,178,8.0,13.0,86,0.00,,,0.10,Wunderground v.1.15,2013-02-19 23:08:00,
2013-02-19 18:14:00,24.2,20.3,29.99,WSW,258,9.0,14.0,85,0.00,,,0.10,Wunderground v.1.15,2013-02-19 23:14:00,
2013-02-19 18:15:00,24.3,20.2,29.99,South,181,10.0,14.0,84,0.00,,,0.10,Wunderground v.1.15,2013-02-19 23:15:00,
2013-02-19 18:18:00,24.2,19.8,29.99,SW,234,10.0,14.0,83,0.00,,,0.10,Wunderground v.1.15,2013-02-19 23:18:00,
2013-02-19 18:21:00,24.2,19.2,30.00,West,267,9.0,10.0,81,0.00,,,0.10,Wunderground v.1.15,2013-02-19 23:21:00,
2013-02-19 18:22:00,24.2,19.2,30.00,WSW,252,9.0,12.0,81,0.00,,,0.10,Wunderground v.1.15,2013-02-19 23:22:00,
2013-02-19 18:24:00,24.1,19.4,30.00,NNW,330,9.0,12.0,82,0.00,,,0.10,Wunderground v.1.15,2013-02-19 23:24:00,
2013-02-19 18:25:00,24.1,19.4,30.00,West,259,9.0,12.0,82,0.00,,,0.10,Wunderground v.1.15,2013-02-19 23:25:00,
2013-02-19 18:29:00,23.9,19.2,30.00,WSW,249,9.0,15.0,82,0.00,,,0.10,Wunderground v.1.15,2013-02-19 23:29:00,
2013-02-19 18:30:00,23.8,19.1,30.00,West,271,9.0,9.0,82,0.00,,,0.10,Wunderground v.1.15,2013-02-19 23:30:00,
2013-02-19 18:31:00,23.8,19.1,30.00,West,263,9.0,10.0,82,0.00,,,0.10,Wunderground v.1.15,2013-02-19 23:31:00,
2013-02-19 18:34:00,23.8,18.5,30.00,West,263,9.0,10.0,80,0.00,,,0.10,Wunderground v.1.15,2013-02-19 23:34:00,
2013-02-19 18:36:00,23.8,18.5,30.01,WSW,240,8.0,10.0,80,0.00,,,0.10,Wunderground v.1.15,2013-02-19 23:36:00,
2013-02-19 18:38:00,23.9,18.3,30.01,SSE,167,8.0,10.0,79,0.00,,,0.10,Wunderground v.1.15,2013-02-19 23:38:00,
2013-02-19 18:42:00,23.8,17.3,30.01,West,265,9.0,11.0,76,0.00,,,0.10,Wunderground v.1.15,2013-02-19 23:42:00,
2013-02-19 18:44:00,23.7,17.2,30.01,SW,228,9.0,11.0,76,0.00,,,0.10,Wunderground v.1.15,2013-02-19 23:44:00,
2013-02-19 18:45:00,23.7,17.2,30.02,SSW,213,9.0,11.0,76,0.00,,,0.10,Wunderground v.1.15,2013-02-19 23:45:00,
2013-02-19 18:46:00,23.7,16.9,30.01,West,277,9.0,16.0,75,0.00,,,0.10,Wunderground v.1.15,2013-02-19 23:46:00,
2013-02-19 18:49:00,23.5,16.7,30.01,SSW,209,9.0,16.0,75,0.00,,,0.10,Wunderground v.1.15,2013-02-19 23:49:00,
2013-02-19 18:51:00,23.5,16.7,30.02,West,263,9.0,18.0,75,0.00,,,0.10,Wunderground v.1.15,2013-02-19 23:51:00,
2013-02-19 18:52:00,23.5,16.7,30.02,WSW,253,9.0,18.0,75,0.00,,,0.10,Wunderground v.1.15,2013-02-19 23:52:00,
2013-02-19 18:55:00,23.4,16.9,30.02,West,268,9.0,18.0,76,0.00,,,0.10,Wunderground v.1.15,2013-02-19 23:55:00,
2013-02-19 18:57:00,23.3,16.9,30.02,WNW,282,9.0,18.0,76,0.00,,,0.10,Wunderground v.1.15,2013-02-19 23:57:00,
2013-02-19 18:58:00,23.3,16.9,30.02,ESE,108,9.0,18.0,76,0.00,,,0.10,Wunderground v.1.15,2013-02-19 23:58:00,
2013-02-19 19:00:00,23.3,16.9,30.02,WNW,294,8.0,12.0,76,0.00,,,0.10,Wunderground v.1.15,2013-02-20 00:00:00,
2013-02-19 19:03:00,23.2,16.8,30.02,West,276,8.0,12.0,76,0.00,,,0.10,Wunderground v.1.15,2013-02-20 00:03:00,
2013-02-19 19:07:00,23.1,17.0,30.02,WSW,250,7.0,12.0,77,0.00,,,0.10,Wunderground v.1.15,2013-02-20 00:07:00,
2013-02-19 19:08:00,23.1,17.0,30.02,SW,233,7.0,12.0,77,0.00,,,0.10,Wunderground v.1.15,2013-02-20 00:08:00,
2013-02-19 19:10:00,23.1,17.0,30.02,WSW,242,7.0,7.0,77,0.00,,,0.10,Wunderground v.1.15,2013-02-20 00:10:00,
2013-02-19 19:15:00,23.0,16.9,30.02,West,270,6.0,9.0,77,0.00,,,0.10,Wunderground v.1.15,2013-02-20 00:15:00,
2013-02-19 19:17:00,22.9,16.8,30.03,WSW,258,6.0,20.0,77,0.00,,,0.10,Wunderground v.1.15,2013-02-20 00:17:00,
2013-02-19 19:19:00,22.8,17.0,30.02,SW,229,7.0,20.0,78,0.00,,,0.10,Wunderground v.1.15,2013-02-20 00:19:00,
2013-02-19 19:21:00,22.8,17.0,30.03,WSW,257,8.0,10.0,78,0.00,,,0.10,Wunderground v.1.15,2013-02-20 00:21:00,
2013-02-19 19:25:00,22.6,17.1,30.02,West,275,9.0,13.0,79,0.00,,,0.10,Wunderground v.1.15,2013-02-20 00:25:00,
2013-02-19 19:26:00,22.6,17.1,30.03,West,265,9.0,13.0,79,0.00,,,0.10,Wunderground v.1.15,2013-02-20 00:26:00,
2013-02-19 19:27:00,22.6,17.1,30.03,West,271,9.0,13.0,79,0.00,,,0.10,Wunderground v.1.15,2013-02-20 00:27:00,
2013-02-19 19:32:00,22.5,17.0,30.03,WSW,238,8.0,12.0,79,0.00,,,0.10,Wunderground v.1.15,2013-02-20 00:32:00,
2013-02-19 19:33:00,22.5,17.0,30.03,West,265,8.0,12.0,79,0.00,,,0.10,Wunderground v.1.15,2013-02-20 00:33:00,
2013-02-19 19:34:00,22.5,17.0,30.03,SSW,194,8.0,12.0,79,0.00,,,0.10,Wunderground v.1.15,2013-02-20 00:34:00,
2013-02-19 19:36:00,22.5,17.0,30.03,West,269,8.0,12.0,79,0.00,,,0.10,Wunderground v.1.15,2013-02-20 00:36:00,
2013-02-19 19:39:00,22.5,17.0,30.03,West,263,8.0,12.0,79,0.00,,,0.10,Wunderground v.1.15,2013-02-20 00:39:00,
2013-02-19 19:42:00,22.4,16.9,30.03,West,273,8.0,10.0,79,0.00,,,0.10,Wunderground v.1.15,2013-02-20 00:42:00,
2013-02-19 19:43:00,22.4,16.9,30.03,West,269,8.0,10.0,79,0.00,,,0.10,Wunderground v.1.15,2013-02-20 00:43:00,
2013-02-19 19:48:00,22.5,17.3,30.03,SSW,211,6.0,10.0,80,0.00,,,0.10,Wunderground v.1.15,2013-02-20 00:48:00,
2013-02-19 19:49:00,22.5,17.5,30.03,West,270,6.0,10.0,81,0.00,,,0.10,Wunderground v.1.15,2013-02-20 00:49:00,
2013-02-19 19:50:00,22.4,17.2,30.04,SSW,194,6.0,9.0,80,0.00,,,0.10,Wunderground v.1.15,2013-02-20 00:50:00,
2013-02-19 19:52:00,22.4,17.5,30.04,SW,232,6.0,9.0,81,0.00,,,0.10,Wunderground v.1.15,2013-02-20 00:52:00,
2013-02-19 19:55:00,22.4,17.5,30.04,SW,231,6.0,9.0,81,0.00,,,0.10,Wunderground v.1.15,2013-02-20 00:55:00,
2013-02-19 19:58:00,22.4,17.5,30.04,SSW,209,6.0,9.0,81,0.00,,,0.10,Wunderground v.1.15,2013-02-20 00:58:00,
2013-02-19 19:59:00,22.4,17.5,30.04,WSW,242,6.0,9.0,81,0.00,,,0.10,Wunderground v.1.15,2013-02-20 00:59:00,
2013-02-19 20:02:00,22.4,17.5,30.04,SW,215,5.0,6.0,81,0.00,,,0.10,Wunderground v.1.15,2013-02-20 01:02:00,
2013-02-19 20:03:00,22.4,17.7,30.04,WNW,286,5.0,6.0,82,0.00,,,0.10,Wunderground v.1.15,2013-02-20 01:03:00,
2013-02-19 20:04:00,22.3,17.6,30.04,WSW,238,5.0,6.0,82,0.00,,,0.10,Wunderground v.1.15,2013-02-20 01:04:00,
2013-02-19 20:09:00,22.3,17.6,30.04,West,263,6.0,8.0,82,0.00,,,0.10,Wunderground v.1.15,2013-02-20 01:09:00,
2013-02-19 20:10:00,22.2,17.5,30.04,SW,232,6.0,8.0,82,0.00,,,0.10,Wunderground v.1.15,2013-02-20 01:10:00,
2013-02-19 20:12:00,22.2,17.5,30.04,SW,219,6.0,8.0,82,0.00,,,0.10,Wunderground v.1.15,2013-02-20 01:12:00,
2013-02-19 20:17:00,22.2,17.5,30.04,WNW,287,7.0,11.0,82,0.00,,,0.10,Wunderground v.1.15,2013-02-20 01:17:00,
2013-02-19 20:18:00,22.2,17.5,30.04,WSW,256,7.0,12.0,82,0.00,,,0.10,Wunderground v.1.15,2013-02-20 01:18:00,
2013-02-19 20:21:00,22.2,17.3,30.04,NW,323,7.0,11.0,81,0.00,,,0.10,Wunderground v.1.15,2013-02-20 01:21:00,
2013-02-19 20:22:00,22.2,17.3,30.05,SW,217,7.0,11.0,81,0.00,,,0.10,Wunderground v.1.15,2013-02-20 01:22:00,
2013-02-19 20:25:00,22.2,17.0,30.04,South,184,8.0,11.0,80,0.00,,,0.10,Wunderground v.1.15,2013-02-20 01:25:00,
2013-02-19 20:27:00,22.2,16.7,30.05,SW,214,8.0,20.0,79,0.00,,,0.10,Wunderground v.1.15,2013-02-20 01:27:00,
2013-02-19 20:28:00,22.3,16.8,30.05,SSW,207,9.0,20.0,79,0.00,,,0.10,Wunderground v.1.15,2013-02-20 01:28:00,
2013-02-19 20:29:00,22.3,16.8,30.05,West,259,8.0,20.0,79,0.00,,,0.10,Wunderground v.1.15,2013-02-20 01:29:00,
2013-02-19 20:34:00,22.2,16.4,30.05,WSW,240,9.0,12.0,78,0.00,,,0.10,Wunderground v.1.15,2013-02-20 01:34:00,
2013-02-19 20:35:00,22.3,16.2,30.05,WSW,247,9.0,15.0,77,0.00,,,0.10,Wunderground v.1.15,2013-02-20 01:35:00,
2013-02-19 20:36:00,22.2,16.1,30.05,West,261,9.0,15.0,77,0.00,,,0.10,Wunderground v.1.15,2013-02-20 01:36:00,
2013-02-19 20:38:00,22.3,16.2,30.05,WSW,240,9.0,15.0,77,0.00,,,0.10,Wunderground v.1.15,2013-02-20 01:38:00,
2013-02-19 20:43:00,22.2,16.1,30.05,SW,234,8.0,11.0,77,0.00,,,0.10,Wunderground v.1.15,2013-02-20 01:43:00,
2013-02-19 20:44:00,22.2,16.1,30.05,SW,215,8.0,11.0,77,0.00,,,0.10,Wunderground v.1.15,2013-02-20 01:44:00,
2013-02-19 20:45:00,22.2,16.1,30.05,WSW,257,8.0,11.0,77,0.00,,,0.10,Wunderground v.1.15,2013-02-20 01:45:00,
2013-02-19 20:48:00,22.2,16.1,30.05,SSW,202,8.0,11.0,77,0.00,,,0.10,Wunderground v.1.15,2013-02-20 01:48:00,
2013-02-19 20:51:00,22.2,16.1,30.05,West,279,7.0,12.0,77,0.00,,,0.10,Wunderground v.1.15,2013-02-20 01:51:00,
2013-02-19 20:54:00,22.1,16.0,30.05,West,262,7.0,12.0,77,0.00,,,0.10,Wunderground v.1.15,2013-02-20 01:54:00,
2013-02-19 20:55:00,22.1,16.3,30.05,SSW,203,7.0,12.0,78,0.00,,,0.10,Wunderground v.1.15,2013-02-20 01:55:00,
2013-02-19 20:56:00,22.1,16.0,30.05,West,262,7.0,12.0,77,0.00,,,0.10,Wunderground v.1.15,2013-02-20 01:56:00,
2013-02-19 20:57:00,22.1,16.0,30.05,West,260,7.0,13.0,77,0.00,,,0.10,Wunderground v.1.15,2013-02-20 01:57:00,
2013-02-19 21:01:00,22.1,16.0,30.05,WSW,254,8.0,10.0,77,0.00,,,0.10,Wunderground v.1.15,2013-02-20 02:01:00,
2013-02-19 21:02:00,22.1,16.0,30.05,SSW,211,8.0,10.0,77,0.00,,,0.10,Wunderground v.1.15,2013-02-20 02:02:00,
2013-02-19 21:05:00,22.0,15.9,30.05,WSW,240,8.0,10.0,77,0.00,,,0.10,Wunderground v.1.15,2013-02-20 02:05:00,
2013-02-19 21:07:00,22.0,15.9,30.05,SSW,200,8.0,19.0,77,0.00,,,0.10,Wunderground v.1.15,2013-02-20 02:07:00,
2013-02-19 21:08:00,22.0,15.9,30.05,WSW,245,8.0,19.0,77,0.00,,,0.10,Wunderground v.1.15,2013-02-20 02:08:00,
2013-02-19 21:09:00,22.0,15.9,30.05,WSW,240,8.0,19.0,77,0.00,,,0.10,Wunderground v.1.15,2013-02-20 02:09:00,
2013-02-19 21:13:00,22.0,15.9,30.05,SW,220,8.0,10.0,77,0.00,,,0.10,Wunderground v.1.15,2013-02-20 02:13:00,
2013-02-19 21:14:00,22.0,16.2,30.06,SW,215,7.0,10.0,78,0.00,,,0.10,Wunderground v.1.15,2013-02-20 02:14:00,
2013-02-19 21:15:00,22.0,15.9,30.06,SW,236,8.0,10.0,77,0.00,,,0.10,Wunderground v.1.15,2013-02-20 02:15:00,
2013-02-19 21:16:00,22.0,16.2,30.06,WSW,252,8.0,13.0,78,0.00,,,0.10,Wunderground v.1.15,2013-02-20 02:16:00,
2013-02-19 21:20:00,21.9,16.1,30.06,WSW,246,7.0,8.0,78,0.00,,,0.10,Wunderground v.1.15,2013-02-20 02:20:00,
2013-02-19 21:21:00,21.9,16.1,30.06,WSW,248,7.0,8.0,78,0.00,,,0.10,Wunderground v.1.15,2013-02-20 02:21:00,
2013-02-19 21:24:00,21.8,16.0,30.06,WSW,250,7.0,12.0,78,0.00,,,0.10,Wunderground v.1.15,2013-02-20 02:24:00,
2013-02-19 21:31:00,21.7,15.9,30.06,West,271,8.0,10.0,78,0.00,,,0.10,Wunderground v.1.15,2013-02-20 02:31:00,
2013-02-19 21:33:00,21.6,15.5,30.06,SW,219,9.0,16.0,77,0.00,,,0.10,Wunderground v.1.15,2013-02-20 02:33:00,
2013-02-19 21:34:00,21.6,15.5,30.07,West,271,9.0,16.0,77,0.00,,,0.10,Wunderground v.1.15,2013-02-20 02:34:00,
2013-02-19 21:37:00,21.6,15.5,30.06,West,281,9.0,16.0,77,0.00,,,0.10,Wunderground v.1.15,2013-02-20 02:37:00,
2013-02-19 21:39:00,21.6,15.2,30.06,South,187,9.0,16.0,76,0.00,,,0.10,Wunderground v.1.15,2013-02-20 02:39:00,
2013-02-19 21:43:00,21.6,15.2,30.07,WNW,286,10.0,13.0,76,0.00,,,0.10,Wunderground v.1.15,2013-02-20 02:43:00,
2013-02-19 21:44:00,21.6,15.2,30.07,West,269,10.0,13.0,76,0.00,,,0.10,Wunderground v.1.15,2013-02-20 02:44:00,
2013-02-19 21:45:00,21.6,15.2,30.07,NNW,331,10.0,13.0,76,0.00,,,0.10,Wunderground v.1.15,2013-02-20 02:45:00,
2013-02-19 21:46:00,21.6,15.2,30.07,West,272,10.0,13.0,76,0.00,,,0.10,Wunderground v.1.15,2013-02-20 02:46:00,
2013-02-19 21:49:00,21.6,15.2,30.07,WSW,238,9.0,18.0,76,0.00,,,0.10,Wunderground v.1.15,2013-02-20 02:49:00,
2013-02-19 21:50:00,21.6,15.2,30.07,West,273,9.0,9.0,76,0.00,,,0.10,Wunderground v.1.15,2013-02-20 02:50:00,
2013-02-19 21:52:00,21.5,15.1,30.07,SSW,196,8.0,13.0,76,0.00,,,0.10,Wunderground v.1.15,2013-02-20 02:52:00,
2013-02-19 21:54:00,21.6,15.2,30.07,SW,223,8.0,13.0,76,0.00,,,0.10,Wunderground v.1.15,2013-02-20 02:54:00,
2013-02-19 21:56:00,21.6,15.2,30.07,West,279,8.0,13.0,76,0.00,,,0.10,Wunderground v.1.15,2013-02-20 02:56:00,
2013-02-19 21:58:00,21.6,15.2,30.08,NW,309,8.0,13.0,76,0.00,,,0.10,Wunderground v.1.15,2013-02-20 02:58:00,
2013-02-19 21:59:00,21.6,15.5,30.08,West,277,7.0,13.0,77,0.00,,,0.10,Wunderground v.1.15,2013-02-20 02:59:00,
2013-02-19 22:02:00,21.5,15.4,30.08,WSW,250,7.0,10.0,77,0.00,,,0.10,Wunderground v.1.15,2013-02-20 03:02:00,
2013-02-19 22:03:00,21.4,15.6,30.08,WSW,246,7.0,10.0,78,0.00,,,0.10,Wunderground v.1.15,2013-02-20 03:03:00,
2013-02-19 22:04:00,21.4,15.6,30.08,West,280,7.0,10.0,78,0.00,,,0.10,Wunderground v.1.15,2013-02-20 03:04:00,
2013-02-19 22:08:00,21.2,15.4,30.08,West,277,8.0,18.0,78,0.00,,,0.10,Wunderground v.1.15,2013-02-20 03:08:00,
2013-02-19 22:09:00,21.2,15.4,30.08,West,266,8.0,18.0,78,0.00,,,0.10,Wunderground v.1.15,2013-02-20 03:09:00,
2013-02-19 22:11:00,21.1,15.3,30.08,West,259,8.0,10.0,78,0.00,,,0.10,Wunderground v.1.15,2013-02-20 03:11:00,
2013-02-19 22:13:00,21.1,15.3,30.08,WSW,240,8.0,13.0,78,0.00,,,0.10,Wunderground v.1.15,2013-02-20 03:13:00,
2013-02-19 22:14:00,21.1,15.3,30.08,WNW,284,8.0,13.0,78,0.00,,,0.10,Wunderground v.1.15,2013-02-20 03:14:00,
2013-02-19 22:16:00,21.0,15.2,30.08,West,271,8.0,13.0,78,0.00,,,0.10,Wunderground v.1.15,2013-02-20 03:16:00,
2013-02-19 22:21:00,20.9,14.8,30.08,WNW,288,8.0,8.0,77,0.00,,,0.10,Wunderground v.1.15,2013-02-20 03:21:00,
2013-02-19 22:22:00,20.9,15.1,30.08,WSW,241,8.0,9.0,78,0.00,,,0.10,Wunderground v.1.15,2013-02-20 03:22:00,
2013-02-19 22:24:00,20.9,15.1,30.08,West,280,8.0,10.0,78,0.00,,,0.10,Wunderground v.1.15,2013-02-20 03:24:00,
2013-02-19 22:25:00,20.9,15.1,30.08,WSW,238,8.0,11.0,78,0.00,,,0.10,Wunderground v.1.15,2013-02-20 03:25:00,
2013-02-19 22:28:00,20.8,15.0,30.08,West,279,8.0,11.0,78,0.00,,,0.10,Wunderground v.1.15,2013-02-20 03:28:00,
2013-02-19 22:30:00,20.8,15.0,30.08,WSW,246,7.0,7.0,78,0.00,,,0.10,Wunderground v.1.15,2013-02-20 03:30:00,
2013-02-19 22:32:00,20.8,15.0,30.08,WNW,294,7.0,7.0,78,0.00,,,0.10,Wunderground v.1.15,2013-02-20 03:32:00,
2013-02-19 22:35:00,20.7,14.9,30.08,WNW,291,7.0,8.0,78,0.00,,,0.10,Wunderground v.1.15,2013-02-20 03:35:00,
2013-02-19 22:36:00,20.7,15.2,30.08,SSW,211,6.0,8.0,79,0.00,,,0.10,Wunderground v.1.15,2013-02-20 03:36:00,
2013-02-19 22:40:00,20.7,15.2,30.08,WNW,284,7.0,12.0,79,0.00,,,0.10,Wunderground v.1.15,2013-02-20 03:40:00,
2013-02-19 22:41:00,20.7,15.2,30.08,WSW,250,7.0,12.0,79,0.00,,,0.10,Wunderground v.1.15,2013-02-20 03:41:00,
2013-02-19 22:45:00,20.6,15.4,30.08,WNW,286,6.0,12.0,80,0.00,,,0.10,Wunderground v.1.15,2013-02-20 03:45:00,
2013-02-19 22:47:00,20.7,15.5,30.08,West,281,5.0,12.0,80,0.00,,,0.10,Wunderground v.1.15,2013-02-20 03:47:00,
2013-02-19 22:48:00,20.7,15.5,30.08,WNW,282,5.0,12.0,80,0.00,,,0.10,Wunderground v.1.15,2013-02-20 03:48:00,
2013-02-19 22:52:00,20.7,15.8,30.08,West,274,4.0,8.0,81,0.00,,,0.10,Wunderground v.1.15,2013-02-20 03:52:00,
2013-02-19 22:53:00,20.7,15.8,30.08,West,280,4.0,8.0,81,0.00,,,0.10,Wunderground v.1.15,2013-02-20 03:53:00,
2013-02-19 22:55:00,20.6,15.7,30.08,West,273,4.0,9.0,81,0.00,,,0.10,Wunderground v.1.15,2013-02-20 03:55:00,
2013-02-19 22:58:00,20.6,15.7,30.08,SSW,199,5.0,9.0,81,0.00,,,0.10,Wunderground v.1.15,2013-02-20 03:58:00,
2013-02-19 22:59:00,20.6,15.7,30.08,NW,310,5.0,9.0,81,0.00,,,0.10,Wunderground v.1.15,2013-02-20 03:59:00,
2013-02-19 23:02:00,20.6,15.7,30.08,SSE,155,5.0,6.0,81,0.00,,,0.10,Wunderground v.1.15,2013-02-20 04:02:00,
2013-02-19 23:04:00,20.6,15.7,30.08,West,264,4.0,6.0,81,0.00,,,0.10,Wunderground v.1.15,2013-02-20 04:04:00,
2013-02-19 23:05:00,20.6,15.7,30.08,WSW,238,5.0,6.0,81,0.00,,,0.10,Wunderground v.1.15,2013-02-20 04:05:00,
2013-02-19 23:06:00,20.6,15.7,30.08,West,268,4.0,6.0,81,0.00,,,0.10,Wunderground v.1.15,2013-02-20 04:06:00,
2013-02-19 23:10:00,20.6,15.7,30.08,WSW,251,5.0,5.0,81,0.00,,,0.10,Wunderground v.1.15,2013-02-20 04:10:00,
2013-02-19 23:12:00,20.6,15.7,30.08,WNW,288,5.0,7.0,81,0.00,,,0.10,Wunderground v.1.15,2013-02-20 04:12:00,
2013-02-19 23:13:00,20.6,15.7,30.08,West,275,5.0,7.0,81,0.00,,,0.10,Wunderground v.1.15,2013-02-20 04:13:00,
2013-02-19 23:14:00,20.6,15.7,30.08,WNW,290,5.0,7.0,81,0.00,,,0.10,Wunderground v.1.15,2013-02-20 04:14:00,
2013-02-19 23:16:00,20.6,16.0,30.08,WSW,256,5.0,8.0,82,0.00,,,0.10,Wunderground v.1.15,2013-02-20 04:16:00,
2013-02-19 23:18:00,20.6,16.0,30.08,WSW,251,5.0,8.0,82,0.00,,,0.10,Wunderground v.1.15,2013-02-20 04:18:00,
2013-02-19 23:20:00,20.6,16.0,30.08,WNW,302,4.0,8.0,82,0.00,,,0.10,Wunderground v.1.15,2013-02-20 04:20:00,
2013-02-19 23:23:00,20.6,16.0,30.08,West,267,4.0,7.0,82,0.00,,,0.10,Wunderground v.1.15,2013-02-20 04:23:00,
2013-02-19 23:24:00,20.6,16.0,30.09,WSW,252,4.0,7.0,82,0.00,,,0.10,Wunderground v.1.15,2013-02-20 04:24:00,
2013-02-19 23:25:00,20.6,16.0,30.08,West,265,4.0,7.0,82,0.00,,,0.10,Wunderground v.1.15,2013-02-20 04:25:00,
2013-02-19 23:27:00,20.6,16.0,30.08,WSW,249,4.0,7.0,82,0.00,,,0.10,Wunderground v.1.15,2013-02-20 04:27:00,
2013-02-19 23:29:00,20.5,15.9,30.09,West,268,4.0,7.0,82,0.00,,,0.10,Wunderground v.1.15,2013-02-20 04:29:00,
2013-02-19 23:30:00,20.5,15.9,30.09,West,261,3.0,7.0,82,0.00,,,0.10,Wunderground v.1.15,2013-02-20 04:30:00,
2013-02-19 23:35:00,20.6,16.3,30.09,SW,215,4.0,7.0,83,0.00,,,0.10,Wunderground v.1.15,2013-02-20 04:35:00,
2013-02-19 23:36:00,20.6,16.3,30.09,West,273,4.0,7.0,83,0.00,,,0.10,Wunderground v.1.15,2013-02-20 04:36:00,
2013-02-19 23:39:00,20.6,16.3,30.09,WNW,300,4.0,7.0,83,0.00,,,0.10,Wunderground v.1.15,2013-02-20 04:39:00,
2013-02-19 23:42:00,20.6,16.3,30.09,West,271,5.0,13.0,83,0.00,,,0.10,Wunderground v.1.15,2013-02-20 04:42:00,
2013-02-19 23:43:00,20.7,16.4,30.09,WSW,250,5.0,13.0,83,0.00,,,0.10,Wunderground v.1.15,2013-02-20 04:43:00,
2013-02-19 23:45:00,20.6,16.3,30.09,WNW,291,5.0,13.0,83,0.00,,,0.10,Wunderground v.1.15,2013-02-20 04:45:00,
2013-02-19 23:46:00,20.6,16.3,30.09,West,263,6.0,13.0,83,0.00,,,0.10,Wunderground v.1.15,2013-02-20 04:46:00,
2013-02-19 23:47:00,20.5,16.2,30.09,WNW,302,6.0,13.0,83,0.00,,,0.10,Wunderground v.1.15,2013-02-20 04:47:00,
2013-02-19 23:51:00,20.4,15.8,30.08,WSW,238,7.0,7.0,82,0.00,,,0.10,Wunderground v.1.15,2013-02-20 04:51:00,
2013-02-19 23:53:00,20.5,15.9,30.09,SW,214,7.0,10.0,82,0.00,,,0.10,Wunderground v.1.15,2013-02-20 04:53:00,
2013-02-19 23:54:00,20.5,15.9,30.09,West,279,7.0,10.0,82,0.00,,,0.10,Wunderground v.1.15,2013-02-20 04:54:00,
2013-02-19 23:57:00,20.7,15.8,30.09,West,266,6.0,10.0,81,0.00,,,0.10,Wunderground v.1.15,2013-02-20 04:57:00,